Time;durP1;ratioP1;P1;durP2;ratioP2;P2;SDS_P1;SDS_P2;PMS_P1;PMS_P2;Temp;Humidity;BMP_temperature;BMP_pressure;BME280_temperature;BME280_humidity;BME280_pressure;Samples;Min_cycle;Max_cycle;Signal;HPM_P1;HPM_P2
2022/12/12 00:01:53;;;;;;;23.23;14.10;;;0.80;99.90;;;;;;5051229;28;20040;-54
2022/12/12 00:04:19;;;;;;;24.88;15.50;;;0.80;99.90;;;;;;5051050;28;20124;-54
2022/12/12 00:06:45;;;;;;;27.43;15.63;;;0.80;99.90;;;;;;5052160;28;20128;-53
2022/12/12 00:09:11;;;;;;;23.37;14.07;;;0.80;99.90;;;;;;5050390;28;20049;-54
2022/12/12 00:11:37;;;;;;;;;;;0.80;99.90;;;;;;5050814;28;20037;-54
2022/12/12 00:14:03;;;;;;;24.30;14.70;;;0.80;99.90;;;;;;5050846;28;19970;-55
2022/12/12 00:16:30;;;;;;;25.75;14.10;;;0.80;99.90;;;;;;5052063;28;20036;-55
2022/12/12 00:18:56;;;;;;;24.08;14.80;;;0.80;99.90;;;;;;5051445;28;20161;-54
2022/12/12 00:21:24;;;;;;;23.83;14.45;;;0.80;99.90;;;;;;5051470;28;20114;-55
2022/12/12 00:23:50;;;;;;;22.83;12.77;;;0.80;99.90;;;;;;5049834;28;20060;-56
2022/12/12 00:26:22;;;;;;;21.70;12.93;;;0.80;99.90;;;;;;5051753;28;20044;-52
2022/12/12 00:28:48;;;;;;;24.85;14.23;;;0.80;99.90;;;;;;5051667;28;20037;-56
2022/12/12 00:31:14;;;;;;;26.17;15.18;;;0.80;99.90;;;;;;5051977;28;20469;-56
2022/12/12 00:33:40;;;;;;;27.73;16.23;;;0.80;99.90;;;;;;5050073;28;20036;-52
2022/12/12 00:36:06;;;;;;;24.60;13.17;;;0.80;99.90;;;;;;5051567;28;20555;-56
2022/12/12 00:38:32;;;;;;;21.80;13.40;;;0.80;99.90;;;;;;5051044;28;20482;-56
2022/12/12 00:40:59;;;;;;;24.48;14.27;;;0.80;99.90;;;;;;5052147;28;20067;-56
2022/12/12 00:43:26;;;;;;;27.38;15.43;;;0.80;99.90;;;;;;5050291;28;20037;-57
2022/12/12 00:45:51;;;;;;;;;;;0.80;99.90;;;;;;5052494;28;20064;-55
2022/12/12 00:48:18;;;;;;;26.58;15.80;;;0.70;99.90;;;;;;5051386;28;20313;-51
2022/12/12 00:50:43;;;;;;;27.05;14.43;;;0.70;99.90;;;;;;5051153;28;20028;-51
2022/12/12 00:53:09;;;;;;;26.40;14.15;;;0.70;99.90;;;;;;5050395;28;20056;-51
2022/12/12 00:55:35;;;;;;;23.30;13.90;;;0.70;99.90;;;;;;5051708;28;20047;-51
2022/12/12 00:58:00;;;;;;;23.00;13.80;;;0.70;99.90;;;;;;5049944;28;20052;-55
2022/12/12 01:00:27;;;;;;;25.70;14.37;;;0.70;99.90;;;;;;5051607;28;20049;-54
2022/12/12 01:02:56;;;;;;;23.35;13.82;;;0.70;99.90;;;;;;5051050;28;20399;-54
2022/12/12 01:05:21;;;;;;;28.95;14.35;;;0.70;99.90;;;;;;5049634;28;20371;-51
2022/12/12 01:07:47;;;;;;;25.97;14.07;;;0.70;99.90;;;;;;5051156;28;20036;-51
2022/12/12 01:10:13;;;;;;;26.07;15.43;;;0.70;99.90;;;;;;5049368;28;20044;-55
2022/12/12 01:12:38;;;;;;;27.67;16.13;;;0.70;99.90;;;;;;5051111;28;20071;-54
2022/12/12 01:15:06;;;;;;;26.40;16.33;;;0.70;99.90;;;;;;5049333;28;20498;-52
2022/12/12 01:17:36;;;;;;;25.17;14.98;;;0.70;99.90;;;;;;5050273;28;20127;-54
2022/12/12 01:20:16;;;;;;;27.05;15.18;;;0.70;99.90;;;;;;5049536;28;20048;-51
2022/12/12 01:22:41;;;;;;;24.88;15.13;;;0.70;99.90;;;;;;5050420;28;20090;-54
2022/12/12 01:25:07;;;;;;;31.80;15.97;;;0.70;99.90;;;;;;5049602;28;20048;-56
2022/12/12 01:27:33;;;;;;;26.70;15.73;;;0.70;99.90;;;;;;5050614;28;20044;-53
2022/12/12 01:30:00;;;;;;;26.33;15.83;;;0.70;99.90;;;;;;5050708;28;20278;-51
2022/12/12 01:32:27;;;;;;;27.67;15.80;;;0.70;99.90;;;;;;5050085;28;20112;-55
2022/12/12 01:34:52;;;;;;;26.45;15.75;;;0.70;99.90;;;;;;5049563;28;20053;-51
2022/12/12 01:37:18;;;;;;;27.80;14.97;;;0.70;99.90;;;;;;5049663;28;20167;-53
2022/12/12 01:39:44;;;;;;;26.53;14.93;;;0.70;99.90;;;;;;5050001;28;20086;-54
2022/12/12 01:42:13;;;;;;;27.42;15.52;;;0.70;99.90;;;;;;5050188;28;20049;-51
2022/12/12 01:44:42;;;;;;;26.27;15.73;;;0.70;99.90;;;;;;5048647;28;20037;-54
2022/12/12 01:47:08;;;;;;;23.75;14.30;;;0.70;99.90;;;;;;5081339;28;20037;-53
2022/12/12 01:49:34;;;;;;;27.90;15.68;;;0.70;99.90;;;;;;5049856;28;20445;-55
2022/12/12 01:52:06;;;;;;;25.80;14.65;;;0.70;99.90;;;;;;5050402;28;20087;-54
2022/12/12 01:54:37;;;;;;;25.45;16.17;;;0.70;99.90;;;;;;5049169;28;20083;-54
2022/12/12 01:57:08;;;;;;;24.50;15.02;;;0.70;99.90;;;;;;5049933;28;20120;-54
2022/12/12 01:59:35;;;;;;;25.17;15.10;;;0.70;99.90;;;;;;5049219;28;20068;-52
2022/12/12 02:02:01;;;;;;;25.90;13.98;;;0.70;99.90;;;;;;5046217;28;20051;-55
2022/12/12 02:04:27;;;;;;;26.48;15.10;;;0.70;99.90;;;;;;5048422;28;20040;-52
2022/12/12 02:06:54;;;;;;;27.40;15.70;;;0.70;99.90;;;;;;5050328;28;20036;-52
2022/12/12 02:09:20;;;;;;;;;;;0.70;99.90;;;;;;5049908;28;20045;-55
2022/12/12 02:11:49;;;;;;;23.15;14.60;;;0.70;99.90;;;;;;5049701;28;20392;-55
2022/12/12 02:14:37;;;;;;;26.00;13.75;;;0.70;99.90;;;;;;5048407;28;20044;-55
2022/12/12 02:17:27;;;;;;;21.83;13.43;;;0.70;99.90;;;;;;5049725;28;20080;-55
2022/12/12 02:20:11;;;;;;;22.65;13.18;;;0.70;99.90;;;;;;5049465;28;20044;-55
2022/12/12 02:23:08;;;;;;;21.65;13.50;;;0.70;99.90;;;;;;5049338;28;20047;-55
2022/12/12 02:26:18;;;;;;;24.13;13.30;;;0.70;99.90;;;;;;5029779;28;20045;-55
2022/12/12 02:29:09;;;;;;;23.60;13.27;;;0.70;99.90;;;;;;5029193;28;20045;-56
2022/12/12 02:32:00;;;;;;;23.75;14.00;;;0.70;99.90;;;;;;5032845;28;20041;-53
2022/12/12 02:34:54;;;;;;;24.73;14.07;;;0.70;99.90;;;;;;5048343;28;20082;-51
2022/12/12 02:37:23;;;;;;;26.08;14.00;;;0.70;99.90;;;;;;5049284;28;20059;-51
2022/12/12 02:40:19;;;;;;;22.23;13.73;;;0.70;99.90;;;;;;5049963;28;20071;-51
2022/12/12 02:42:54;;;;;;;25.17;15.10;;;0.60;99.90;;;;;;5048910;28;20044;-52
2022/12/12 02:45:39;;;;;;;23.80;13.90;;;0.60;99.90;;;;;;5048867;28;20051;-54
2022/12/12 02:48:19;;;;;;;27.08;15.32;;;0.60;99.90;;;;;;5047739;28;20398;-52
2022/12/12 02:50:47;;;;;;;24.05;14.68;;;0.60;99.90;;;;;;5049819;28;20040;-51
2022/12/12 02:53:18;;;;;;;25.92;13.57;;;0.60;99.90;;;;;;5048348;28;20041;-54
2022/12/12 02:55:43;;;;;;;25.27;14.23;;;0.70;99.90;;;;;;5049506;28;20653;-55
2022/12/12 02:58:09;;;;;;;27.73;13.63;;;0.60;99.90;;;;;;5053611;28;20132;-51
2022/12/12 03:01:18;;;;;;;22.17;14.13;;;0.70;99.90;;;;;;5054081;28;20037;-51
2022/12/12 03:10:13;;;;;;;24.73;14.48;;;0.70;99.90;;;;;;5052757;28;20510;-52
2022/12/12 03:12:40;;;;;;;24.98;14.50;;;0.70;99.90;;;;;;5033555;28;20049;-54
2022/12/12 03:15:21;;;;;;;23.35;13.48;;;0.70;99.90;;;;;;5042574;28;20041;-51
2022/12/12 03:18:08;;;;;;;24.60;13.90;;;0.70;99.90;;;;;;5052961;28;20033;-55
2022/12/12 03:21:01;;;;;;;23.40;14.20;;;0.70;99.90;;;;;;5052925;28;20116;-53
2022/12/12 03:23:33;;;;;;;21.67;13.68;;;0.70;99.90;;;;;;5048405;28;20076;-53
2022/12/12 03:26:28;;;;;;;23.50;14.15;;;0.70;99.90;;;;;;5052118;28;20494;-52
2022/12/12 03:29:20;;;;;;;25.73;15.63;;;0.70;99.90;;;;;;5043383;28;20049;-54
2022/12/12 03:31:50;;;;;;;23.20;13.57;;;0.70;99.90;;;;;;5047864;28;20518;-55
2022/12/12 03:34:27;;;;;;;22.35;13.18;;;0.70;99.90;;;;;;5052138;28;20106;-55
2022/12/12 03:37:16;;;;;;;24.98;14.18;;;0.80;99.90;;;;;;5052366;28;20343;-54
2022/12/12 03:39:46;;;;;;;22.05;13.38;;;0.80;99.90;;;;;;5028695;28;20060;-51
2022/12/12 03:42:21;;;;;;;23.40;14.50;;;0.80;99.90;;;;;;5032703;28;20041;-52
2022/12/12 03:44:51;;;;;;;24.17;13.95;;;0.80;99.90;;;;;;5030879;28;20328;-56
2022/12/12 03:47:28;;;;;;;24.58;14.35;;;0.80;99.90;;;;;;5041857;28;20509;-51
2022/12/12 03:49:54;;;;;;;;;;;0.80;99.90;;;;;;5052585;28;20048;-55
2022/12/12 03:52:31;;;;;;;23.70;13.70;;;0.80;99.90;;;;;;5052202;28;20299;-55
2022/12/12 03:55:10;;;;;;;20.33;13.15;;;0.80;99.90;;;;;;5051616;28;20041;-55
2022/12/12 03:57:45;;;;;;;22.55;14.27;;;0.80;99.90;;;;;;5052051;28;20037;-56
2022/12/12 04:00:13;;;;;;;25.70;13.75;;;0.80;99.90;;;;;;5051927;28;20438;-55
2022/12/12 04:02:50;;;;;;;22.65;13.85;;;0.80;99.90;;;;;;5052005;28;20036;-55
2022/12/12 04:05:38;;;;;;;21.98;14.48;;;0.80;99.90;;;;;;5050750;28;20064;-55
2022/12/12 04:08:07;;;;;;;23.73;15.15;;;0.80;99.90;;;;;;5050625;28;20052;-56
2022/12/12 04:13:58;;;;;;;22.40;14.13;;;0.80;99.90;;;;;;5051072;28;20052;-56
2022/12/12 04:16:32;;;;;;;21.48;13.77;;;0.80;99.90;;;;;;5051854;28;20071;-52
2022/12/12 04:25:25;;;;;;;20.92;13.23;;;0.80;99.90;;;;;;5008405;28;20419;-53
2022/12/12 04:27:57;;;;;;;24.75;15.77;;;0.80;99.90;;;;;;5008899;28;20044;-51
2022/12/12 04:30:23;;;;;;;24.00;14.13;;;0.80;99.90;;;;;;5009416;28;20041;-54
2022/12/12 04:32:53;;;;;;;;;;;0.80;99.90;;;;;;5009479;28;20112;-52
2022/12/12 04:35:28;;;;;;;21.92;13.90;;;0.80;99.90;;;;;;5008770;28;20443;-53
2022/12/12 04:38:02;;;;;;;22.25;14.05;;;0.80;99.90;;;;;;5008225;28;20077;-53
2022/12/12 04:40:36;;;;;;;23.17;14.32;;;0.80;99.90;;;;;;5009230;28;20057;-51
2022/12/12 04:43:06;;;;;;;22.35;14.32;;;0.80;99.90;;;;;;5007857;28;20080;-51
2022/12/12 04:45:36;;;;;;;24.85;14.25;;;0.80;99.90;;;;;;5009059;28;20128;-51
2022/12/12 04:48:04;;;;;;;23.52;14.43;;;0.80;99.90;;;;;;5008388;28;20610;-51
2022/12/12 04:50:33;;;;;;;25.70;14.98;;;0.80;99.90;;;;;;5005685;28;20434;-53
2022/12/12 04:53:02;;;;;;;23.63;14.63;;;0.80;99.90;;;;;;4988427;28;20043;-52
2022/12/12 04:55:41;;;;;;;21.88;14.00;;;0.80;99.90;;;;;;4989264;28;20053;-54
2022/12/12 04:58:07;;;;;;;23.17;14.82;;;0.80;99.90;;;;;;5019068;28;20399;-51
2022/12/12 05:00:44;;;;;;;24.40;14.52;;;0.80;99.90;;;;;;5047424;28;20037;-54
2022/12/12 05:03:25;;;;;;;;;;;0.80;99.90;;;;;;5050468;28;20044;-51
2022/12/12 05:05:58;;;;;;;26.35;14.73;;;0.80;99.90;;;;;;5051292;28;19943;-53
2022/12/12 05:08:37;;;;;;;22.67;13.98;;;0.80;99.90;;;;;;5050645;28;20060;-55
2022/12/12 05:11:05;;;;;;;25.05;14.20;;;0.80;99.90;;;;;;5050743;28;20044;-53
2022/12/12 05:13:34;;;;;;;25.00;13.98;;;0.80;99.90;;;;;;5049959;28;20084;-54
2022/12/12 05:16:03;;;;;;;22.10;15.20;;;0.80;99.90;;;;;;5051221;28;20049;-53
2022/12/12 05:18:30;;;;;;;25.42;15.32;;;0.80;99.90;;;;;;5050435;28;20079;-57
2022/12/12 05:20:55;;;;;;;25.40;15.50;;;0.80;99.90;;;;;;5050532;28;20041;-55
2022/12/12 05:23:21;;;;;;;26.40;15.97;;;0.80;99.90;;;;;;5049653;28;20037;-53
2022/12/12 05:25:46;;;;;;;27.53;15.23;;;0.80;99.90;;;;;;5048697;28;20449;-54
2022/12/12 05:28:12;;;;;;;26.13;15.73;;;0.80;99.90;;;;;;5050353;28;20037;-56
2022/12/12 05:30:38;;;;;;;25.02;15.93;;;0.80;99.90;;;;;;5050371;28;20079;-53
2022/12/12 05:33:04;;;;;;;23.38;14.52;;;0.80;99.90;;;;;;5049648;28;20223;-56
2022/12/12 05:35:30;;;;;;;20.40;13.97;;;0.80;99.90;;;;;;5050457;28;20037;-53
2022/12/12 05:37:55;;;;;;;26.73;15.07;;;0.80;99.90;;;;;;5050010;28;20037;-55
2022/12/12 05:40:21;;;;;;;22.63;14.67;;;0.70;99.90;;;;;;5049352;28;20037;-55
2022/12/12 05:42:47;;;;;;;30.23;17.13;;;0.70;99.90;;;;;;5050387;28;20041;-56
2022/12/12 05:45:13;;;;;;;33.20;18.10;;;0.70;99.90;;;;;;5049204;28;20056;-56
2022/12/12 05:47:39;;;;;;;32.53;19.67;;;0.80;99.90;;;;;;5050109;28;20040;-56
2022/12/12 05:50:05;;;;;;;26.57;17.33;;;0.80;99.90;;;;;;5050650;28;20033;-56
2022/12/12 05:52:31;;;;;;;;;;;0.80;99.90;;;;;;5050201;28;20033;-55
2022/12/12 05:54:57;;;;;;;29.45;16.73;;;0.80;99.90;;;;;;5048866;28;19917;-56
2022/12/12 05:57:23;;;;;;;30.60;16.70;;;0.80;99.90;;;;;;5050000;28;20044;-51
2022/12/12 05:59:48;;;;;;;26.87;17.43;;;0.70;99.90;;;;;;5050382;28;20556;-51
2022/12/12 06:02:15;;;;;;;23.70;14.43;;;0.70;99.90;;;;;;5049854;28;20037;-53
2022/12/12 06:04:41;;;;;;;22.90;13.98;;;0.70;99.90;;;;;;5048734;28;20095;-52
2022/12/12 06:07:07;;;;;;;24.65;13.93;;;0.70;99.90;;;;;;5048769;28;20099;-51
2022/12/12 06:09:32;;;;;;;26.13;15.18;;;0.70;99.90;;;;;;5049589;28;20041;-52
2022/12/12 06:11:58;;;;;;;21.87;14.37;;;0.80;99.90;;;;;;5049507;28;20040;-52
2022/12/12 06:14:24;;;;;;;21.90;14.07;;;0.80;99.90;;;;;;5048702;28;20090;-55
2022/12/12 06:16:50;;;;;;;22.27;14.52;;;0.80;99.90;;;;;;5049705;28;20045;-51
2022/12/12 06:19:18;;;;;;;21.48;12.85;;;0.80;99.90;;;;;;5048979;28;20071;-53
2022/12/12 06:21:43;;;;;;;24.85;14.70;;;0.80;99.90;;;;;;5049643;28;20045;-53
2022/12/12 06:24:09;;;;;;;20.92;12.98;;;0.80;99.90;;;;;;5047601;28;20053;-53
2022/12/12 06:26:35;;;;;;;18.83;13.27;;;0.80;99.90;;;;;;5050014;28;20486;-52
2022/12/12 06:29:00;;;;;;;22.90;13.90;;;0.80;99.90;;;;;;5049324;28;20120;-51
2022/12/12 06:31:26;;;;;;;16.27;10.87;;;0.80;99.90;;;;;;5049502;28;20044;-53
2022/12/12 06:33:51;;;;;;;20.33;12.77;;;0.80;99.90;;;;;;5048232;28;20048;-54
2022/12/12 06:36:25;;;;;;;21.33;13.50;;;0.90;99.90;;;;;;5048329;28;20506;-53
2022/12/12 06:38:58;;;;;;;19.27;12.30;;;0.90;99.90;;;;;;5048447;28;20148;-54
2022/12/12 06:41:26;;;;;;;22.15;14.55;;;0.90;99.90;;;;;;5049341;28;20090;-53
2022/12/12 06:43:51;;;;;;;28.65;16.95;;;0.90;99.90;;;;;;5048573;28;20068;-51
2022/12/12 06:46:20;;;;;;;29.60;18.73;;;0.80;99.90;;;;;;5044112;28;20060;-51
2022/12/12 06:48:46;;;;;;;31.73;20.80;;;0.80;99.90;;;;;;5045924;28;20079;-53
2022/12/12 06:51:22;;;;;;;34.10;20.17;;;0.80;99.90;;;;;;5048672;28;20064;-55
2022/12/12 06:53:48;;;;;;;32.58;18.15;;;0.70;99.90;;;;;;5047162;28;20037;-51
2022/12/12 06:56:20;;;;;;;30.80;18.90;;;0.70;99.90;;;;;;5048841;28;20384;-55
2022/12/12 06:58:46;;;;;;;38.72;21.05;;;0.70;99.90;;;;;;5047636;28;20060;-52
2022/12/12 07:01:13;;;;;;;40.78;22.35;;;0.60;99.90;;;;;;5048579;28;20033;-55
2022/12/12 07:03:39;;;;;;;38.60;21.52;;;0.60;99.90;;;;;;5047532;28;20248;-57
2022/12/12 07:06:05;;;;;;;37.58;20.60;;;0.60;99.90;;;;;;5049130;28;20102;-51
2022/12/12 07:08:32;;;;;;;37.25;20.73;;;0.50;99.90;;;;;;5047945;28;20065;-55
2022/12/12 07:11:06;;;;;;;34.88;20.90;;;0.50;99.90;;;;;;5049009;28;20037;-56
2022/12/12 07:13:32;;;;;;;38.00;22.50;;;0.40;99.90;;;;;;5046783;28;20048;-53
2022/12/12 07:15:57;;;;;;;32.70;20.53;;;0.40;99.90;;;;;;5048886;28;20053;-55
2022/12/12 07:18:23;;;;;;;34.37;20.70;;;0.40;99.90;;;;;;5048309;28;20041;-55
2022/12/12 07:20:49;;;;;;;38.03;21.83;;;0.30;99.90;;;;;;5049298;28;20127;-56
2022/12/12 07:23:14;;;;;;;38.63;20.60;;;0.30;99.90;;;;;;5046646;28;20124;-56
2022/12/12 07:25:42;;;;;;;38.77;22.57;;;0.20;99.90;;;;;;5048514;28;20116;-57
2022/12/12 07:28:09;;;;;;;41.30;20.60;;;0.20;99.90;;;;;;5046105;28;20044;-55
2022/12/12 07:30:39;;;;;;;37.08;22.45;;;0.20;99.90;;;;;;5048436;28;20114;-54
2022/12/12 07:33:05;;;;;;;39.15;21.77;;;0.20;99.90;;;;;;5047266;28;20037;-56
2022/12/12 07:35:30;;;;;;;52.53;22.42;;;0.20;99.90;;;;;;5048749;28;20529;-56
2022/12/12 07:37:56;;;;;;;42.93;23.07;;;0.20;99.90;;;;;;5048500;28;20040;-56
2022/12/12 07:40:22;;;;;;;41.93;22.17;;;0.20;99.90;;;;;;5049103;28;20045;-55
2022/12/12 07:42:48;;;;;;;37.70;21.60;;;0.10;99.90;;;;;;5042878;28;20040;-53
2022/12/12 07:45:14;;;;;;;39.47;21.20;;;0.10;99.90;;;;;;5045173;28;20045;-52
2022/12/12 07:47:40;;;;;;;46.08;23.02;;;0.10;99.90;;;;;;5051663;28;20275;-51
2022/12/12 07:50:06;;;;;;;33.97;20.03;;;0.10;99.90;;;;;;5052018;28;20033;-51
2022/12/12 07:52:31;;;;;;;73.28;24.30;;;0.10;99.90;;;;;;5049185;28;20044;-53
2022/12/12 07:54:57;;;;;;;87.37;25.93;;;0.10;99.90;;;;;;5051458;28;20036;-52
2022/12/12 07:57:23;;;;;;;82.43;24.63;;;0.10;99.90;;;;;;5051934;28;20043;-53
2022/12/12 07:59:48;;;;;;;64.30;23.33;;;0.00;99.90;;;;;;5051056;28;20053;-54
2022/12/12 08:02:14;;;;;;;55.20;23.67;;;0.00;99.90;;;;;;5052326;28;20146;-52
2022/12/12 08:04:39;;;;;;;61.73;24.00;;;0.00;99.90;;;;;;5051428;28;20044;-53
2022/12/12 08:07:05;;;;;;;42.00;21.30;;;0.00;99.90;;;;;;5052058;28;20550;-54
2022/12/12 08:09:30;;;;;;;53.53;23.87;;;0.00;99.90;;;;;;5052230;28;20446;-52
2022/12/12 08:11:57;;;;;;;38.73;20.67;;;0.00;99.90;;;;;;5051968;28;20037;-56
2022/12/12 08:14:24;;;;;;;35.95;20.15;;;0.00;99.90;;;;;;5050791;28;20051;-55
2022/12/12 08:16:51;;;;;;;38.38;20.10;;;0.00;99.90;;;;;;5051971;28;20037;-56
2022/12/12 08:19:17;;;;;;;38.72;19.75;;;0.00;99.90;;;;;;5051320;28;20041;-55
2022/12/12 08:21:43;;;;;;;34.05;19.95;;;0.00;99.90;;;;;;5051462;28;20032;-53
2022/12/12 08:24:12;;;;;;;38.80;21.42;;;0.00;99.90;;;;;;5050563;28;20041;-52
2022/12/12 08:26:38;;;;;;;37.33;20.70;;;0.00;99.90;;;;;;5051700;28;20081;-52
2022/12/12 08:29:04;;;;;;;25.40;16.08;;;0.10;99.90;;;;;;5050978;28;20079;-51
2022/12/12 08:31:29;;;;;;;31.17;18.00;;;0.00;99.90;;;;;;5051806;28;20048;-55
2022/12/12 08:33:56;;;;;;;27.63;15.67;;;-0.10;99.90;;;;;;5050943;28;20609;-54
2022/12/12 08:36:24;;;;;;;24.90;15.15;;;-0.10;99.90;;;;;;5050120;28;20726;-52
2022/12/12 08:38:50;;;;;;;26.20;15.48;;;-0.10;99.90;;;;;;5049833;28;20037;-52
2022/12/12 08:41:17;;;;;;;30.85;18.27;;;0.00;99.90;;;;;;5032898;28;20102;-52
2022/12/12 08:43:44;;;;;;;32.85;17.85;;;0.10;99.90;;;;;;5039305;28;20041;-55
2022/12/12 08:46:11;;;;;;;32.15;19.23;;;0.20;99.90;;;;;;5045210;28;20051;-51
2022/12/12 08:48:36;;;;;;;31.05;17.77;;;0.30;99.90;;;;;;5045593;28;20229;-56
2022/12/12 08:51:02;;;;;;;32.30;18.43;;;0.50;99.90;;;;;;5045528;28;20041;-56
2022/12/12 08:53:28;;;;;;;33.13;17.77;;;0.70;99.90;;;;;;5044388;28;20039;-56
2022/12/12 08:55:54;;;;;;;35.45;20.60;;;0.90;99.90;;;;;;5044738;28;20062;-51
2022/12/12 08:58:19;;;;;;;33.20;20.60;;;1.00;99.90;;;;;;5043641;28;20366;-55
2022/12/12 09:00:45;;;;;;;33.77;20.27;;;1.10;99.90;;;;;;5044874;28;20295;-54
2022/12/12 09:03:11;;;;;;;36.50;21.20;;;1.10;99.90;;;;;;5044041;28;20494;-56
2022/12/12 09:05:36;;;;;;;35.55;18.73;;;1.10;99.90;;;;;;5045496;28;20068;-56
2022/12/12 09:08:02;;;;;;;33.13;19.67;;;1.00;99.90;;;;;;5044489;28;20092;-56
2022/12/12 09:10:28;;;;;;;40.08;23.38;;;0.90;99.90;;;;;;5043770;28;20064;-55
2022/12/12 09:12:54;;;;;;;40.57;24.47;;;0.80;99.90;;;;;;5041595;28;20045;-56
2022/12/12 09:15:20;;;;;;;48.72;26.75;;;0.70;99.90;;;;;;5044402;28;20036;-57
2022/12/12 09:17:45;;;;;;;49.47;26.40;;;0.70;99.90;;;;;;5043821;28;20041;-56
2022/12/12 09:20:11;;;;;;;45.33;25.77;;;0.60;99.90;;;;;;5043125;28;20037;-57
2022/12/12 09:22:37;;;;;;;51.03;26.47;;;0.60;99.90;;;;;;5044767;28;20085;-57
2022/12/12 09:25:03;;;;;;;55.17;28.17;;;0.50;99.90;;;;;;5042782;28;20045;-54
2022/12/12 09:27:29;;;;;;;60.17;29.52;;;0.50;99.90;;;;;;5043386;28;20060;-56
2022/12/12 09:29:55;;;;;;;52.53;28.08;;;0.50;99.90;;;;;;5041414;28;20588;-54
2022/12/12 09:32:21;;;;;;;53.90;28.47;;;0.50;99.90;;;;;;5025728;28;20486;-57
2022/12/12 09:34:47;;;;;;;56.42;29.55;;;0.50;99.90;;;;;;5043641;28;20037;-56
2022/12/12 09:37:13;;;;;;;64.88;29.33;;;0.50;99.90;;;;;;5043587;28;20040;-57
2022/12/12 09:39:38;;;;;;;57.83;29.48;;;0.50;99.90;;;;;;5042911;28;20071;-55
2022/12/12 09:42:16;;;;;;;63.47;30.43;;;0.50;99.90;;;;;;5042234;28;20063;-55
2022/12/12 09:44:42;;;;;;;64.05;33.85;;;0.50;99.90;;;;;;5041074;28;20120;-56
2022/12/12 09:47:16;;;;;;;62.63;30.47;;;0.50;99.90;;;;;;5043632;28;20115;-57
2022/12/12 09:49:51;;;;;;;57.05;29.48;;;0.50;99.90;;;;;;5041185;28;20329;-54
2022/12/12 09:52:29;;;;;;;62.95;29.52;;;0.50;99.90;;;;;;5043427;28;20041;-52
2022/12/12 09:54:54;;;;;;;58.63;30.80;;;0.50;99.90;;;;;;5017806;28;20045;-54
2022/12/12 09:57:33;;;;;;;69.43;33.70;;;0.50;99.90;;;;;;5042901;28;20033;-54
2022/12/12 10:00:07;;;;;;;60.15;33.22;;;0.50;99.90;;;;;;5042295;28;20419;-54
2022/12/12 10:02:38;;;;;;;71.38;35.40;;;0.60;99.90;;;;;;5042724;28;20395;-52
2022/12/12 10:05:14;;;;;;;69.80;37.15;;;0.60;99.90;;;;;;5041044;28;20113;-54
2022/12/12 10:08:00;;;;;;;72.30;37.47;;;0.60;99.90;;;;;;5041070;28;20047;-55
2022/12/12 10:10:54;;;;;;;75.38;36.45;;;0.60;99.90;;;;;;5038207;28;20532;-55
2022/12/12 10:13:26;;;;;;;74.82;36.50;;;0.70;99.90;;;;;;5039050;28;20103;-56
2022/12/12 10:15:56;;;;;;;75.25;36.97;;;0.70;99.90;;;;;;5040380;28;20040;-55
2022/12/12 10:18:25;;;;;;;68.13;35.10;;;0.70;99.90;;;;;;5041884;28;20041;-55
2022/12/12 10:20:55;;;;;;;69.90;35.88;;;0.80;99.90;;;;;;5041443;28;20041;-56
2022/12/12 10:23:53;;;;;;;72.43;35.17;;;0.80;99.90;;;;;;5040070;28;20121;-54
2022/12/12 10:26:26;;;;;;;65.30;33.63;;;0.90;99.90;;;;;;5038062;28;20701;-55
2022/12/12 10:28:58;;;;;;;64.75;33.38;;;0.90;99.90;;;;;;5040665;28;20131;-56
2022/12/12 10:31:51;;;;;;;59.30;31.10;;;1.00;99.90;;;;;;5042936;28;20072;-54
2022/12/12 10:34:40;;;;;;;62.58;32.60;;;0.90;99.90;;;;;;5038759;28;20062;-55
2022/12/12 10:37:24;;;;;;;62.47;31.30;;;1.00;99.90;;;;;;5034663;28;20188;-56
2022/12/12 10:39:58;;;;;;;66.18;33.97;;;1.00;99.90;;;;;;5039266;28;20043;-57
2022/12/12 10:42:46;;;;;;;64.10;34.08;;;1.00;99.90;;;;;;5041098;28;20359;-55
2022/12/12 10:45:39;;;;;;;60.95;32.38;;;1.00;99.90;;;;;;5040978;28;20124;-55
2022/12/12 10:48:05;;;;;;;60.58;32.15;;;1.00;99.90;;;;;;5040411;28;20664;-53
2022/12/12 10:50:37;;;;;;;65.43;34.70;;;1.00;99.90;;;;;;5042248;28;20268;-57
2022/12/12 10:53:06;;;;;;;62.92;32.58;;;1.00;99.90;;;;;;5040721;28;20811;-55
2022/12/12 10:55:56;;;;;;;63.13;33.40;;;1.00;99.90;;;;;;5043259;28;20437;-54
2022/12/12 10:58:26;;;;;;;64.90;33.80;;;1.10;99.90;;;;;;5041511;28;20060;-56
2022/12/12 11:01:00;;;;;;;61.92;32.95;;;1.10;99.90;;;;;;5040704;28;20041;-55
2022/12/12 11:03:34;;;;;;;59.72;31.88;;;1.10;99.90;;;;;;5036599;28;20037;-56
2022/12/12 11:06:05;;;;;;;61.42;30.02;;;1.10;99.90;;;;;;5038860;28;20041;-52
2022/12/12 11:08:33;;;;;;;51.55;27.92;;;1.10;99.90;;;;;;5041563;28;20033;-52
2022/12/12 11:11:27;;;;;;;49.45;28.48;;;1.10;99.90;;;;;;5043364;28;20044;-55
2022/12/12 11:13:58;;;;;;;50.50;27.90;;;1.10;99.90;;;;;;5038127;28;20087;-56
2022/12/12 11:16:27;;;;;;;61.25;30.70;;;1.10;99.90;;;;;;5043473;28;20080;-52
2022/12/12 11:19:06;;;;;;;58.47;30.88;;;1.10;99.90;;;;;;5045297;28;20516;-55
2022/12/12 11:21:34;;;;;;;56.85;29.80;;;1.10;99.90;;;;;;5059904;28;20037;-52
2022/12/12 11:24:05;;;;;;;56.70;29.98;;;1.20;99.90;;;;;;5045381;28;20033;-55
2022/12/12 11:26:44;;;;;;;59.17;30.35;;;1.20;99.90;;;;;;5046708;28;20032;-55
2022/12/12 11:29:32;;;;;;;60.50;31.13;;;1.20;99.90;;;;;;5046606;28;20471;-57
2022/12/12 11:31:58;;;;;;;58.72;31.00;;;1.20;99.90;;;;;;5047238;28;20087;-57
2022/12/12 11:34:26;;;;;;;63.72;33.55;;;1.20;99.90;;;;;;5045776;28;20080;-54
2022/12/12 11:36:53;;;;;;;60.00;30.70;;;1.20;99.90;;;;;;5045590;28;20048;-56
2022/12/12 11:39:19;;;;;;;;;;;1.20;99.90;;;;;;5046798;28;20067;-55
2022/12/12 11:41:59;;;;;;;62.78;30.30;;;1.20;99.90;;;;;;5046368;28;19956;-57
2022/12/12 11:44:25;;;;;;;57.97;30.75;;;1.20;99.90;;;;;;5045098;28;20402;-56
2022/12/12 11:46:50;;;;;;;52.08;30.08;;;1.20;99.90;;;;;;5046782;28;20037;-56
2022/12/12 11:49:19;;;;;;;60.37;30.80;;;1.10;99.90;;;;;;5046428;28;20033;-55
2022/12/12 11:51:45;;;;;;;55.13;31.30;;;1.20;99.90;;;;;;5047382;28;20041;-56
2022/12/12 11:54:30;;;;;;;;;;;1.20;99.90;;;;;;5045716;28;20037;-52
2022/12/12 11:57:02;;;;;;;59.67;31.08;;;1.20;99.90;;;;;;5047450;28;20390;-52
2022/12/12 11:59:56;;;;;;;58.95;31.95;;;1.20;99.90;;;;;;5046783;28;20482;-54
2022/12/12 12:02:39;;;;;;;63.28;32.65;;;1.20;99.90;;;;;;5045557;28;20159;-53
2022/12/12 12:05:42;;;;;;;63.50;35.00;;;1.20;99.90;;;;;;5045275;28;20041;-56
2022/12/12 12:08:23;;;;;;;63.25;32.97;;;1.30;99.90;;;;;;5045184;28;20041;-55
2022/12/12 12:10:58;;;;;;;61.90;32.30;;;1.30;99.90;;;;;;5046263;28;20064;-54
2022/12/12 12:13:37;;;;;;;73.47;34.85;;;1.30;99.90;;;;;;5035868;28;20036;-53
2022/12/12 12:16:12;;;;;;;65.00;34.38;;;1.30;99.90;;;;;;5046719;28;20041;-54
2022/12/12 12:18:59;;;;;;;64.93;32.75;;;1.30;99.90;;;;;;5043329;28;20043;-56
2022/12/12 12:21:56;;;;;;;66.90;33.17;;;1.30;99.90;;;;;;5044838;28;20037;-53
2022/12/12 12:24:43;;;;;;;66.50;35.15;;;1.40;99.90;;;;;;5044143;28;20341;-54
2022/12/12 12:27:45;;;;;;;57.33;31.57;;;1.40;99.90;;;;;;5044588;28;20499;-54
2022/12/12 12:30:23;;;;;;;64.22;30.52;;;1.40;99.90;;;;;;5043255;28;20064;-52
2022/12/12 12:33:23;;;;;;;71.97;33.35;;;1.40;99.90;;;;;;5044313;28;20047;-54
2022/12/12 12:36:17;;;;;;;65.18;32.95;;;1.40;99.90;;;;;;5044058;28;20044;-55
2022/12/12 12:39:11;;;;;;;66.72;33.35;;;1.40;99.90;;;;;;5041154;28;20060;-56
2022/12/12 12:42:08;;;;;;;62.40;29.58;;;1.50;99.90;;;;;;5045097;28;20561;-55
2022/12/12 12:45:11;;;;;;;67.50;32.47;;;1.50;99.90;;;;;;5018471;28;20099;-55
2022/12/12 12:47:49;;;;;;;64.35;31.45;;;1.50;99.90;;;;;;5043897;28;20037;-55
2022/12/12 12:50:25;;;;;;;62.72;33.70;;;1.60;99.90;;;;;;5045424;28;20060;-53
2022/12/12 12:53:03;;;;;;;68.68;34.88;;;1.60;99.90;;;;;;5042941;28;20335;-54
2022/12/12 12:55:39;;;;;;;56.58;30.80;;;1.60;99.90;;;;;;5044156;28;20415;-56
2022/12/12 12:58:12;;;;;;;58.92;30.90;;;1.60;99.90;;;;;;5043206;28;20119;-54
2022/12/12 13:00:38;;;;;;;61.00;29.80;;;1.60;99.90;;;;;;5043819;28;20360;-57
2022/12/12 13:03:20;;;;;;;59.50;30.38;;;1.60;99.90;;;;;;5044004;28;20048;-56
2022/12/12 13:06:00;;;;;;;63.92;29.40;;;1.60;99.90;;;;;;5043400;28;20418;-54
2022/12/12 13:08:32;;;;;;;60.50;30.73;;;1.70;99.90;;;;;;5057970;28;20055;-55
2022/12/12 13:11:09;;;;;;;60.67;30.73;;;1.70;99.90;;;;;;5045443;28;20036;-56
2022/12/12 13:13:39;;;;;;;60.08;31.30;;;1.80;99.90;;;;;;5045037;28;20445;-55
2022/12/12 13:16:21;;;;;;;54.00;31.02;;;1.90;99.90;;;;;;5045192;28;20497;-55
2022/12/12 13:18:59;;;;;;;51.95;27.75;;;2.00;99.90;;;;;;5044323;28;20560;-57
2022/12/12 13:21:55;;;;;;;65.97;31.50;;;2.00;99.90;;;;;;5041283;28;20047;-55